createdAt,value
2019-01-15T00:00:17.589Z,2.5
2019-01-15T00:05:17.423Z,1.4
2019-01-15T00:10:17.424Z,2.9
2019-01-15T00:15:17.260Z,1.5
2019-01-15T00:20:17.285Z,1.5
2019-01-15T00:25:17.137Z,1.9
2019-01-15T00:30:16.984Z,3.6
2019-01-15T00:35:16.805Z,1.5
2019-01-15T00:40:16.846Z,2.6
2019-01-15T00:45:18.020Z,3
2019-01-15T00:50:16.858Z,0.9
2019-01-15T00:55:17.830Z,1.5
2019-01-15T01:00:17.645Z,3.4
2019-01-15T01:05:17.470Z,3.6
2019-01-15T01:10:17.498Z,3
2019-01-15T01:15:17.326Z,2.3
2019-01-15T01:20:17.344Z,0.5
2019-01-15T01:25:17.181Z,2.1
2019-01-15T01:30:17.016Z,1.7
2019-01-15T01:35:16.833Z,2
2019-01-15T01:40:16.833Z,3.3
2019-01-15T01:45:17.823Z,1.5
2019-01-15T01:50:17.636Z,1.3
2019-01-15T01:55:17.577Z,3.8
2019-01-15T02:00:17.415Z,2.5
2019-01-15T02:05:17.226Z,2.3
2019-01-15T02:10:17.162Z,1.7
2019-01-15T02:15:16.998Z,2.1
2019-01-15T02:20:17.000Z,2.4
2019-01-15T02:25:16.829Z,4.7
2019-01-15T02:30:17.693Z,3.2
2019-01-15T02:35:17.542Z,1.2
2019-01-15T02:40:17.627Z,1.7
2019-01-15T02:45:17.489Z,1
2019-01-15T02:50:17.357Z,1
2019-01-15T02:55:17.230Z,1.5
2019-01-15T03:00:17.096Z,2.3
2019-01-15T03:05:16.940Z,1
2019-01-15T03:10:17.084Z,2.6
2019-01-15T03:15:16.947Z,1.3
2019-01-15T03:20:16.953Z,4.9
2019-01-15T03:25:16.785Z,3.5
2019-01-15T03:30:17.645Z,1.1
2019-01-15T03:35:17.473Z,1.5
2019-01-15T03:40:17.588Z,1.8
2019-01-15T03:45:17.441Z,0.8
2019-01-15T03:50:17.313Z,1.8
2019-01-15T03:55:17.155Z,0.5
2019-01-15T04:00:17.007Z,3.6
2019-01-15T04:05:16.908Z,1.1
2019-01-15T04:10:17.102Z,2.1
2019-01-15T04:15:17.037Z,1
2019-01-15T04:20:17.079Z,0.7
2019-01-15T04:25:16.938Z,1.5
2019-01-15T04:30:16.766Z,2.7
2019-01-15T04:35:17.700Z,0.6
2019-01-15T04:40:17.705Z,1.5
2019-01-15T04:45:17.607Z,0.5
2019-01-15T04:50:17.461Z,0.8
2019-01-15T04:55:17.282Z,0.5
2019-01-15T05:00:17.139Z,1.1
2019-01-15T05:05:17.027Z,1.4
2019-01-15T05:10:16.992Z,1.7
2019-01-15T05:15:16.848Z,1.9
2019-01-15T05:20:16.872Z,2.5
2019-01-15T05:25:17.722Z,2.7
2019-01-15T05:30:17.750Z,1.6
2019-01-15T05:35:17.593Z,1.2
2019-01-15T05:40:17.568Z,1.3
2019-01-15T05:45:17.421Z,0.2
2019-01-15T05:50:17.253Z,0.9
2019-01-15T05:55:17.068Z,0.5
2019-01-15T06:00:16.885Z,0.6
2019-01-15T06:05:17.721Z,0.8
2019-01-15T06:10:17.811Z,0.4
2019-01-15T06:15:17.837Z,1.5
2019-01-15T06:20:16.962Z,0.2
2019-01-15T06:25:17.198Z,2.6
2019-01-15T06:30:17.031Z,0.5
2019-01-15T06:35:16.925Z,0.7
2019-01-15T06:40:16.906Z,2.8
2019-01-15T06:45:16.782Z,2.2
2019-01-15T06:50:24.709Z,2.1
2019-01-15T06:55:17.573Z,2
2019-01-15T07:00:17.396Z,2
2019-01-15T07:05:17.261Z,1.8
2019-01-15T07:10:17.291Z,1.7
2019-01-15T07:15:17.238Z,1.5
2019-01-15T07:20:17.341Z,1.9
2019-01-15T07:25:17.231Z,3
2019-01-15T07:30:17.050Z,2.5
2019-01-15T07:35:16.869Z,6.2
2019-01-15T07:40:16.882Z,3.6
2019-01-15T07:45:17.803Z,3.9
2019-01-15T07:50:17.638Z,2.4
2019-01-15T07:55:17.887Z,2.1
2019-01-15T08:00:17.717Z,4.1
2019-01-15T08:05:17.572Z,4.5
2019-01-15T08:10:17.597Z,4.5
2019-01-15T08:15:17.509Z,3.7
2019-01-15T08:20:17.553Z,2.1
2019-01-15T08:25:17.770Z,4
2019-01-15T08:30:17.808Z,2.9
2019-01-15T08:35:17.814Z,3.5
2019-01-15T08:40:16.753Z,3.5
2019-01-15T08:45:17.591Z,2.4
2019-01-15T08:50:17.410Z,4.3
2019-01-15T08:55:17.230Z,3.6
2019-01-15T09:00:17.045Z,4.4
2019-01-15T09:05:16.864Z,5.4
2019-01-15T09:10:17.251Z,8
2019-01-15T09:15:17.207Z,7
2019-01-15T09:20:17.477Z,9
2019-01-15T09:25:17.512Z,9.1
2019-01-15T09:30:17.493Z,6.9
2019-01-15T09:35:17.362Z,10.1
2019-01-15T09:40:17.482Z,8.1
2019-01-15T09:45:17.331Z,10.3
2019-01-15T09:50:17.161Z,6.7
2019-01-15T09:55:17.006Z,10.8
2019-01-15T10:00:16.901Z,10.1
2019-01-15T10:05:16.771Z,11
2019-01-15T10:10:18.098Z,11.7
2019-01-15T10:15:16.921Z,8.8
2019-01-15T10:20:16.953Z,12.3
2019-01-15T10:25:16.813Z,12.5
2019-01-15T10:30:17.737Z,12.5
2019-01-15T10:35:17.601Z,15.3
2019-01-15T10:40:17.666Z,10.4
2019-01-15T10:45:17.537Z,15.5
2019-01-15T10:50:17.410Z,14.8
2019-01-15T10:55:17.293Z,14.4
2019-01-15T11:00:17.197Z,15.6
2019-01-15T11:05:17.150Z,14.1
2019-01-15T11:10:17.405Z,14.8
2019-01-15T11:15:17.366Z,13
2019-01-15T11:20:17.552Z,8.4
2019-01-15T11:25:17.691Z,13
2019-01-15T11:30:17.635Z,7.9
2019-01-15T11:35:17.555Z,12.5
2019-01-15T11:40:17.586Z,8.5
2019-01-15T11:45:17.562Z,11.1
2019-01-15T11:50:17.492Z,7.9
2019-01-15T11:55:17.389Z,12.6
2019-01-15T12:00:17.228Z,9.2
2019-01-15T12:05:17.130Z,10.9
2019-01-15T12:10:17.281Z,11.3
2019-01-15T12:15:17.154Z,10
2019-01-15T12:20:17.622Z,9.2
2019-01-15T12:25:17.571Z,10.1
2019-01-15T12:30:17.429Z,9.6
2019-01-15T12:35:17.294Z,9.7
2019-01-15T12:40:17.269Z,5.3
2019-01-15T12:45:18.721Z,10.3
2019-01-15T12:50:17.624Z,10
2019-01-15T12:55:17.527Z,10.6
2019-01-15T13:00:17.453Z,6.2
2019-01-15T13:05:17.314Z,10.5
2019-01-15T13:10:17.368Z,9.9
2019-01-15T13:15:34.415Z,10.3
2019-01-15T13:20:16.908Z,5.8
2019-01-15T13:25:16.881Z,9.5
2019-01-15T13:30:18.070Z,9.7
2019-01-15T13:35:17.023Z,9
2019-01-15T13:40:17.021Z,5.5
2019-01-15T13:45:16.861Z,8.7
2019-01-15T13:50:17.750Z,7.3
2019-01-15T13:55:17.685Z,7.6
2019-01-15T14:00:17.583Z,7.4
2019-01-15T14:05:17.438Z,6.9
2019-01-15T14:10:17.565Z,3.8
2019-01-15T14:15:17.426Z,6.8
2019-01-15T14:20:17.417Z,7.2
2019-01-15T14:25:17.254Z,7.2
2019-01-15T14:30:17.149Z,3.9
2019-01-15T14:35:17.022Z,6.9
2019-01-15T14:40:16.977Z,6.5
2019-01-15T14:45:16.821Z,7.5
2019-01-15T14:50:17.657Z,4.6
2019-01-15T14:55:17.654Z,7.4
2019-01-15T15:00:17.505Z,7.6
2019-01-15T15:05:17.358Z,7
2019-01-15T15:10:17.421Z,6.9
2019-01-15T15:15:17.406Z,6.3
2019-01-15T15:20:17.465Z,5.7
2019-01-15T15:25:17.334Z,5.6
2019-01-15T15:30:17.145Z,5.7
2019-01-15T15:35:17.086Z,6
2019-01-15T15:40:17.118Z,5.2
2019-01-15T15:45:16.962Z,4.9
2019-01-15T15:50:16.817Z,5.4
2019-01-15T15:55:17.678Z,4.9
2019-01-15T16:00:17.657Z,5.6
2019-01-15T16:05:17.517Z,7.4
2019-01-15T16:10:17.698Z,7.5
2019-01-15T16:15:17.870Z,4.9
2019-01-15T16:20:16.926Z,8.5
2019-01-15T16:25:16.895Z,9.3
2019-01-15T16:30:17.853Z,10
2019-01-15T16:35:17.738Z,10.5
2019-01-15T16:40:17.801Z,10
2019-01-15T16:45:17.648Z,11.8
2019-01-15T16:50:17.523Z,13.4
2019-01-15T16:55:17.341Z,9
2019-01-15T17:00:17.161Z,8.5
2019-01-15T17:05:17.017Z,15.3
2019-01-15T17:10:16.999Z,15.2
2019-01-15T17:15:16.945Z,15.1
2019-01-15T17:20:16.986Z,14.7
2019-01-15T17:25:16.962Z,15.3
2019-01-15T17:30:16.826Z,11.4
2019-01-15T17:35:17.737Z,8.9
2019-01-15T17:40:17.879Z,13.4
2019-01-15T17:45:17.702Z,9.4
2019-01-15T17:50:17.569Z,14.2
2019-01-15T17:55:17.525Z,9.6
2019-01-15T18:00:17.365Z,7.4
2019-01-15T18:05:17.250Z,15.2
2019-01-15T18:10:17.330Z,13.7
2019-01-15T18:15:17.526Z,13
2019-01-15T18:20:17.590Z,9.5
2019-01-15T18:25:17.471Z,14.4
2019-01-15T18:30:17.462Z,7.4
2019-01-15T18:35:17.285Z,14.5
2019-01-15T18:40:17.253Z,7.5
2019-01-15T18:45:17.084Z,8.1
2019-01-15T18:50:16.934Z,15.6
2019-01-15T18:55:16.802Z,15
2019-01-15T19:00:17.879Z,10.5
2019-01-15T19:05:17.978Z,14.1
2019-01-15T19:10:17.262Z,8.5
2019-01-15T19:15:17.217Z,14.4
2019-01-15T19:20:17.325Z,8.1
2019-01-15T19:25:17.278Z,13.1
2019-01-15T19:30:17.141Z,13.2
2019-01-15T19:35:17.002Z,13
2019-01-15T19:40:16.957Z,7.6
2019-01-15T19:45:16.814Z,13.2
2019-01-15T19:50:17.694Z,12.1
2019-01-15T19:55:17.523Z,9.6
2019-01-15T20:00:19.778Z,11.5
2019-01-15T20:05:18.256Z,8.1
2019-01-15T20:10:18.268Z,11.6
2019-01-15T20:15:17.903Z,10.5
2019-01-15T20:20:18.082Z,9.8
2019-01-15T20:25:17.934Z,9.7
2019-01-15T20:30:17.207Z,8.9
2019-01-15T20:35:17.128Z,8.7
2019-01-15T20:40:17.160Z,8.5
2019-01-15T20:45:18.035Z,7.7
2019-01-15T20:50:17.649Z,4.2
2019-01-15T20:55:18.168Z,7.8
2019-01-15T21:00:18.190Z,5.4
2019-01-15T21:05:18.143Z,9.4
2019-01-15T21:10:17.470Z,9.3
2019-01-15T21:15:19.541Z,11.1
2019-01-15T21:20:19.369Z,10.3
2019-01-15T21:25:20.005Z,8.1
2019-01-15T21:30:19.216Z,16.4
2019-01-15T21:35:17.189Z,10.1
2019-01-15T21:40:17.141Z,13.7
2019-01-15T21:45:17.024Z,17.1
2019-01-15T21:50:16.857Z,15
2019-01-15T21:55:17.729Z,15.6
2019-01-15T22:00:17.779Z,16.6
2019-01-15T22:05:17.613Z,8.2
2019-01-15T22:10:17.922Z,15.1
2019-01-15T22:15:16.817Z,14.3
2019-01-15T22:20:16.892Z,14.7
2019-01-15T22:25:17.922Z,13.5
2019-01-15T22:30:16.773Z,10.2
2019-01-15T22:35:17.718Z,14.1
2019-01-15T22:40:18.503Z,13.3
2019-01-15T22:45:17.275Z,9.1
2019-01-15T22:50:17.138Z,12.7
2019-01-15T22:55:16.969Z,6.5
2019-01-15T23:00:16.794Z,9.1
2019-01-15T23:05:17.716Z,10.7
2019-01-15T23:10:17.698Z,14
2019-01-15T23:15:17.526Z,16.5
2019-01-15T23:20:17.575Z,18.1
2019-01-15T23:25:17.443Z,10.7
2019-01-15T23:30:17.313Z,18.8
2019-01-15T23:35:17.196Z,20.1
2019-01-15T23:40:17.171Z,18.6
2019-01-15T23:45:17.029Z,19.5
2019-01-15T23:50:16.845Z,14.9
2019-01-15T23:55:17.682Z,15.7
